Time;durP1;ratioP1;P1;durP2;ratioP2;P2;SDS_P1;SDS_P2;PMS_P1;PMS_P2;Temp;Humidity;BMP_temperature;BMP_pressure;BME280_temperature;BME280_humidity;BME280_pressure;Samples;Min_cycle;Max_cycle;Signal;HPM_P1;HPM_P2
2021/06/05 00:00:19;;;;;;;18.15;11.43;;;;;;;;;;5099486;28;20031;-84
2021/06/05 00:02:45;;;;;;;20.35;14.05;;;;;;;;;;5099431;28;20020;-84
2021/06/05 00:05:11;;;;;;;25.60;13.40;;;;;;;;;;5099459;28;20035;-84
2021/06/05 00:07:37;;;;;;;22.48;12.50;;;;;;;;;;5099038;28;20024;-85
2021/06/05 00:10:06;;;;;;;20.95;11.77;;;;;;;;;;5099076;28;20314;-85
2021/06/05 00:12:33;;;;;;;20.70;11.90;;;;;;;;;;5099288;28;20039;-85
2021/06/05 00:14:59;;;;;;;15.38;10.40;;;;;;;;;;5099260;28;20398;-85
2021/06/05 00:17:25;;;;;;;14.55;9.68;;;;;;;;;;5098927;28;20413;-85
2021/06/05 00:19:51;;;;;;;13.63;9.60;;;;;;;;;;5099067;28;20028;-85
2021/06/05 00:22:19;;;;;;;19.55;9.95;;;;;;;;;;5098920;28;20020;-84
2021/06/05 00:24:45;;;;;;;15.82;9.35;;;;;;;;;;5098937;28;20031;-85
2021/06/05 00:27:11;;;;;;;17.48;9.52;;;;;;;;;;5097713;28;20028;-84
2021/06/05 00:29:37;;;;;;;17.98;9.90;;;;;;;;;;5098904;28;20107;-85
2021/06/05 00:32:04;;;;;;;15.07;9.50;;;;;;;;;;5098131;28;20028;-84
2021/06/05 00:34:30;;;;;;;15.00;9.77;;;;;;;;;;5098828;28;20012;-85
2021/06/05 00:36:56;;;;;;;17.83;10.73;;;;;;;;;;5098878;28;20421;-85
2021/06/05 00:39:22;;;;;;;20.50;10.63;;;;;;;;;;5097712;28;20338;-85
2021/06/05 00:41:48;;;;;;;16.50;10.25;;;;;;;;;;5098750;28;20031;-85
2021/06/05 00:44:15;;;;;;;13.05;9.63;;;;;;;;;;5098523;28;20097;-85
2021/06/05 00:46:41;;;;;;;14.20;9.77;;;;;;;;;;5098593;28;20056;-85
2021/06/05 00:49:09;;;;;;;14.10;9.13;;;;;;;;;;5098336;28;20044;-85
2021/06/05 00:51:46;;;;;;;16.98;9.00;;;;;;;;;;5098532;28;20031;-85
2021/06/05 00:54:13;;;;;;;15.32;9.32;;;;;;;;;;5098529;28;20040;-85
2021/06/05 00:56:40;;;;;;;16.75;9.60;;;;;;;;;;5098333;28;20398;-85
2021/06/05 00:59:06;;;;;;;16.30;9.75;;;;;;;;;;5097308;28;20062;-84
2021/06/05 01:01:33;;;;;;;20.80;9.70;;;;;;;;;;5098252;28;20028;-85
2021/06/05 01:03:59;;;;;;;13.40;9.25;;;;;;;;;;5097938;28;20405;-85
2021/06/05 01:06:25;;;;;;;15.50;10.07;;;;;;;;;;5098381;28;20028;-85
2021/06/05 01:08:54;;;;;;;16.55;9.95;;;;;;;;;;5097979;28;20118;-84
2021/06/05 01:11:20;;;;;;;17.67;10.95;;;;;;;;;;5098061;28;20439;-84
2021/06/05 01:14:09;;;;;;;21.80;10.93;;;;;;;;;;5098004;28;20024;-85
2021/06/05 01:16:37;;;;;;;24.88;11.05;;;;;;;;;;5075798;28;20037;-84
2021/06/05 01:19:23;;;;;;;19.05;10.40;;;;;;;;;;5075641;28;20446;-84
2021/06/05 01:22:16;;;;;;;13.85;9.88;;;;;;;;;;5075725;28;20136;-83
2021/06/05 01:24:44;;;;;;;18.83;10.48;;;;;;;;;;5016061;28;20033;-85
2021/06/05 01:27:12;;;;;;;21.95;10.57;;;;;;;;;;5016006;28;20108;-85
2021/06/05 01:29:41;;;;;;;16.77;11.15;;;;;;;;;;5016008;28;20420;-84
2021/06/05 01:32:09;;;;;;;24.85;11.95;;;;;;;;;;5016116;28;20516;-84
2021/06/05 01:34:38;;;;;;;16.23;10.77;;;;;;;;;;5015809;28;20371;-84
2021/06/05 01:37:06;;;;;;;13.75;10.18;;;;;;;;;;5015987;28;20018;-84
2021/06/05 01:39:35;;;;;;;17.67;10.85;;;;;;;;;;5015550;28;20037;-84
2021/06/05 01:42:03;;;;;;;13.63;10.52;;;;;;;;;;4999291;28;20080;-84
2021/06/05 01:44:31;;;;;;;15.82;11.18;;;;;;;;;;5015460;28;20037;-84
2021/06/05 01:46:57;;;;;;;16.48;10.73;;;;;;;;;;5015594;28;20081;-84
2021/06/05 01:49:24;;;;;;;16.40;10.80;;;;;;;;;;4999163;28;20042;-83
2021/06/05 01:51:52;;;;;;;18.35;11.07;;;;;;;;;;5015792;28;20021;-83
2021/06/05 01:54:27;;;;;;;18.08;11.57;;;;;;;;;;5047989;28;20425;-84
2021/06/05 01:56:57;;;;;;;17.90;11.35;;;;;;;;;;5038734;28;20029;-84
2021/06/05 01:59:23;;;;;;;26.88;13.15;;;;;;;;;;5055361;28;20150;-84
2021/06/05 02:01:49;;;;;;;27.73;14.65;;;;;;;;;;5082785;28;20039;-84
2021/06/05 02:04:15;;;;;;;24.75;14.77;;;;;;;;;;5097522;28;20404;-84
2021/06/05 02:06:44;;;;;;;26.52;14.73;;;;;;;;;;5097290;28;20024;-84
2021/06/05 02:09:10;;;;;;;30.50;15.60;;;;;;;;;;5097382;28;20410;-84
2021/06/05 02:11:40;;;;;;;28.00;14.18;;;;;;;;;;5097179;28;20020;-83
2021/06/05 02:14:08;;;;;;;23.85;14.70;;;;;;;;;;5097543;28;20023;-83
2021/06/05 02:16:37;;;;;;;29.98;15.88;;;;;;;;;;5096999;28;20358;-83
2021/06/05 02:19:08;;;;;;;24.58;14.07;;;;;;;;;;5097221;28;20020;-83
2021/06/05 02:21:35;;;;;;;28.55;14.48;;;;;;;;;;5097310;28;20016;-83
2021/06/05 02:24:04;;;;;;;26.95;15.55;;;;;;;;;;5097208;28;20059;-84
2021/06/05 02:26:30;;;;;;;27.80;15.20;;;;;;;;;;5096627;28;20027;-84
2021/06/05 02:28:59;;;;;;;28.00;15.35;;;;;;;;;;5097150;28;20024;-84
2021/06/05 02:31:27;;;;;;;26.17;14.60;;;;;;;;;;5097385;28;20043;-84
2021/06/05 02:33:53;;;;;;;24.92;14.10;;;;;;;;;;5097275;28;20057;-84
2021/06/05 02:36:20;;;;;;;26.02;13.65;;;;;;;;;;5097183;28;20046;-84
2021/06/05 02:38:47;;;;;;;23.10;14.55;;;;;;;;;;5097288;28;20024;-84
2021/06/05 02:41:14;;;;;;;21.25;13.02;;;;;;;;;;5097117;28;20058;-84
2021/06/05 02:43:42;;;;;;;20.05;12.80;;;;;;;;;;5097185;28;20028;-84
2021/06/05 02:58:33;;;;;;;16.55;12.15;;;;;;;;;;5148955;27;20497;-85
2021/06/05 03:00:59;;;;;;;20.77;12.35;;;;;;;;;;5113975;28;20028;-84
2021/06/05 03:03:25;;;;;;;19.83;12.18;;;;;;;;;;5115241;28;20363;-86
2021/06/05 03:05:52;;;;;;;22.23;12.63;;;;;;;;;;5115267;28;20020;-85
2021/06/05 03:08:23;;;;;;;21.02;12.55;;;;;;;;;;5114935;28;20437;-84
2021/06/05 03:10:50;;;;;;;24.67;12.65;;;;;;;;;;5115078;28;20295;-85
2021/06/05 03:13:18;;;;;;;22.25;12.07;;;;;;;;;;5114976;28;20465;-84
2021/06/05 03:15:44;;;;;;;18.00;12.73;;;;;;;;;;5114666;28;20028;-84
2021/06/05 03:18:11;;;;;;;22.60;14.32;;;;;;;;;;5114035;28;20023;-85
2021/06/05 03:20:39;;;;;;;21.42;13.90;;;;;;;;;;5114863;28;20027;-84
2021/06/05 03:23:06;;;;;;;24.17;13.48;;;;;;;;;;5115137;28;20012;-85
2021/06/05 03:25:32;;;;;;;21.95;13.43;;;;;;;;;;5114606;28;20032;-86
2021/06/05 03:27:58;;;;;;;20.05;12.65;;;;;;;;;;5114743;28;20024;-85
2021/06/05 03:30:25;;;;;;;20.38;13.13;;;;;;;;;;5114727;28;20039;-85
2021/06/05 03:32:51;;;;;;;27.48;13.80;;;;;;;;;;5114644;28;20024;-85
2021/06/05 03:35:17;;;;;;;19.63;13.00;;;;;;;;;;5114673;28;20034;-85
2021/06/05 03:37:44;;;;;;;24.45;12.48;;;;;;;;;;5113706;28;20032;-86
2021/06/05 03:40:11;;;;;;;26.40;14.05;;;;;;;;;;5114772;28;20338;-85
2021/06/05 03:42:37;;;;;;;23.00;15.45;;;;;;;;;;5113361;28;20051;-85
2021/06/05 03:45:08;;;;;;;32.83;16.75;;;;;;;;;;5114375;28;20024;-85
2021/06/05 03:47:34;;;;;;;32.20;15.63;;;;;;;;;;5114288;28;20024;-86
2021/06/05 03:50:00;;;;;;;27.10;15.18;;;;;;;;;;5114451;28;20063;-85
2021/06/05 03:52:26;;;;;;;30.52;13.82;;;;;;;;;;5114076;28;20024;-85
2021/06/05 03:54:54;;;;;;;22.45;13.32;;;;;;;;;;5114178;28;20461;-85
2021/06/05 03:57:20;;;;;;;28.85;13.32;;;;;;;;;;5112754;28;20056;-85
2021/06/05 03:59:47;;;;;;;27.77;15.07;;;;;;;;;;5099923;28;20057;-84
2021/06/05 04:02:13;;;;;;;20.33;13.80;;;;;;;;;;5100638;28;20603;-85
2021/06/05 04:04:40;;;;;;;31.50;14.65;;;;;;;;;;5099293;28;20047;-85
2021/06/05 04:07:08;;;;;;;28.92;15.02;;;;;;;;;;5100252;28;20024;-84
2021/06/05 04:09:35;;;;;;;32.80;15.75;;;;;;;;;;5099190;28;20034;-85
2021/06/05 04:12:01;;;;;;;39.28;16.55;;;;;;;;;;5100134;28;20093;-85
2021/06/05 04:14:27;;;;;;;38.55;18.00;;;;;;;;;;5100152;28;20024;-85
2021/06/05 04:16:53;;;;;;;30.95;17.08;;;;;;;;;;5099844;28;20054;-84
2021/06/05 04:19:19;;;;;;;33.63;18.65;;;;;;;;;;5099999;28;20023;-85
2021/06/05 04:21:45;;;;;;;24.17;16.67;;;;;;;;;;5098885;28;20039;-85
2021/06/05 04:24:11;;;;;;;32.45;17.35;;;;;;;;;;5100130;28;20146;-85
2021/06/05 04:26:37;;;;;;;27.65;17.90;;;;;;;;;;5100079;28;20074;-85
2021/06/05 04:29:04;;;;;;;28.92;16.73;;;;;;;;;;5100019;28;20035;-84
2021/06/05 04:31:30;;;;;;;26.27;16.50;;;;;;;;;;5099672;28;20111;-87
2021/06/05 04:33:56;;;;;;;22.75;14.65;;;;;;;;;;5100176;28;20020;-87
2021/06/05 04:36:23;;;;;;;26.65;13.32;;;;;;;;;;5099023;28;20118;-87
2021/06/05 04:38:49;;;;;;;23.90;12.90;;;;;;;;;;5100007;28;20032;-88
2021/06/05 04:41:16;;;;;;;20.67;12.35;;;;;;;;;;5099834;28;20069;-89
2021/06/05 04:43:42;;;;;;;28.00;11.95;;;;;;;;;;5099074;28;20020;-89
2021/06/05 04:46:09;;;;;;;24.85;10.90;;;;;;;;;;5098743;28;20035;-89
2021/06/05 04:48:36;;;;;;;20.35;10.57;;;;;;;;;;5098806;28;20028;-88
2021/06/05 04:51:02;;;;;;;21.60;9.88;;;;;;;;;;5098789;28;20104;-88
2021/06/05 04:53:29;;;;;;;15.77;9.32;;;;;;;;;;5099687;28;20110;-89
2021/06/05 04:55:55;;;;;;;17.60;9.60;;;;;;;;;;5099674;28;20028;-89
2021/06/05 04:58:21;;;;;;;19.13;10.15;;;;;;;;;;5099591;28;20059;-89
2021/06/05 05:00:48;;;;;;;24.08;12.13;;;;;;;;;;5099740;28;20104;-89
2021/06/05 05:03:16;;;;;;;19.48;11.05;;;;;;;;;;5099330;28;20062;-89
2021/06/05 05:05:43;;;;;;;13.18;8.75;;;;;;;;;;5099680;28;20020;-89
2021/06/05 05:08:09;;;;;;;23.17;9.80;;;;;;;;;;5098617;28;20317;-89
2021/06/05 05:10:37;;;;;;;23.50;11.32;;;;;;;;;;5098431;28;20016;-89
2021/06/05 05:13:04;;;;;;;16.05;9.13;;;;;;;;;;5099432;28;20047;-89
2021/06/05 05:15:30;;;;;;;19.08;10.10;;;;;;;;;;5099076;28;20012;-89
2021/06/05 05:17:56;;;;;;;15.85;8.95;;;;;;;;;;5099118;28;20024;-89
2021/06/05 05:20:31;;;;;;;20.58;9.30;;;;;;;;;;5098191;28;20053;-89
2021/06/05 05:22:57;;;;;;;18.17;10.00;;;;;;;;;;5099081;28;20156;-88
2021/06/05 05:25:23;;;;;;;17.58;9.82;;;;;;;;;;5098061;28;20152;-89
2021/06/05 05:27:49;;;;;;;17.45;9.25;;;;;;;;;;5099005;28;20028;-89
2021/06/05 05:30:17;;;;;;;11.52;8.70;;;;;;;;;;5097990;28;20067;-89
2021/06/05 05:32:43;;;;;;;18.23;8.63;;;;;;;;;;5099154;28;20043;-88
2021/06/05 05:35:10;;;;;;;17.52;10.25;;;;;;;;;;5098788;28;20099;-88
2021/06/05 05:37:37;;;;;;;17.58;10.35;;;;;;;;;;5098596;28;20020;-89
2021/06/05 05:40:03;;;;;;;17.95;11.43;;;;;;;;;;5098773;28;20026;-89
2021/06/05 05:42:30;;;;;;;16.27;10.38;;;;;;;;;;5097935;28;20027;-89
2021/06/05 05:44:56;;;;;;;17.52;9.98;;;;;;;;;;5097719;28;20070;-89
2021/06/05 05:47:22;;;;;;;18.85;11.35;;;;;;;;;;5097846;28;20028;-89
2021/06/05 05:49:49;;;;;;;16.50;10.90;;;;;;;;;;5098707;28;20096;-89
2021/06/05 05:52:15;;;;;;;12.68;8.90;;;;;;;;;;5098452;28;20029;-90
2021/06/05 05:54:41;;;;;;;15.85;7.65;;;;;;;;;;5098410;28;20020;-89
2021/06/05 05:57:08;;;;;;;18.52;9.95;;;;;;;;;;5097467;28;20156;-89
2021/06/05 05:59:34;;;;;;;44.83;26.35;;;;;;;;;;5097971;28;20417;-89
2021/06/05 06:02:00;;;;;;;28.08;18.92;;;;;;;;;;5098435;28;20310;-89
2021/06/05 06:04:26;;;;;;;30.15;21.55;;;;;;;;;;5097466;28;20081;-88
2021/06/05 06:06:52;;;;;;;29.38;22.10;;;;;;;;;;5098198;28;20036;-88
2021/06/05 06:09:18;;;;;;;42.42;28.88;;;;;;;;;;5098000;28;20111;-88
2021/06/05 06:11:46;;;;;;;45.38;30.67;;;;;;;;;;5098239;28;20034;-87
2021/06/05 06:14:13;;;;;;;35.30;25.33;;;;;;;;;;5098115;28;20047;-88
2021/06/05 06:16:39;;;;;;;31.17;19.63;;;;;;;;;;5097869;28;20031;-88
2021/06/05 06:19:06;;;;;;;22.63;13.90;;;;;;;;;;5097400;28;20036;-89
2021/06/05 06:21:32;;;;;;;47.28;31.35;;;;;;;;;;5098074;28;20020;-89
2021/06/05 06:23:58;;;;;;;13.45;9.60;;;;;;;;;;5097968;28;20024;-89
2021/06/05 06:26:27;;;;;;;38.17;25.17;;;;;;;;;;5098116;28;20063;-89
2021/06/05 06:28:53;;;;;;;11.77;6.55;;;;;;;;;;5097897;28;20032;-89
2021/06/05 06:31:20;;;;;;;18.00;9.85;;;;;;;;;;5098134;28;20115;-89
2021/06/05 06:33:46;;;;;;;12.70;7.28;;;;;;;;;;5098072;28;20031;-89
2021/06/05 06:36:13;;;;;;;13.50;8.30;;;;;;;;;;5097087;28;20349;-90
2021/06/05 06:38:43;;;;;;;13.45;6.82;;;;;;;;;;5097946;28;20089;-89
2021/06/05 06:41:11;;;;;;;13.43;6.32;;;;;;;;;;5097904;28;20020;-89
2021/06/05 06:43:38;;;;;;;18.70;7.45;;;;;;;;;;5097819;28;20322;-90
2021/06/05 06:46:06;;;;;;;12.10;7.85;;;;;;;;;;5097826;28;20052;-89
2021/06/05 06:48:33;;;;;;;13.63;7.55;;;;;;;;;;5096763;28;20025;-89
2021/06/05 06:50:59;;;;;;;12.15;7.43;;;;;;;;;;5098037;28;20031;-89
2021/06/05 06:53:25;;;;;;;13.30;6.25;;;;;;;;;;5097638;28;20058;-88
2021/06/05 06:55:52;;;;;;;13.10;7.07;;;;;;;;;;5096591;28;20031;-88
2021/06/05 06:58:18;;;;;;;21.27;14.45;;;;;;;;;;5097489;28;20452;-88
2021/06/05 07:00:45;;;;;;;36.38;25.52;;;;;;;;;;5097509;28;20028;-88
2021/06/05 07:03:11;;;;;;;9.38;6.63;;;;;;;;;;5096650;28;20059;-89
2021/06/05 07:05:38;;;;;;;15.10;9.50;;;;;;;;;;5096896;28;20039;-90
2021/06/05 07:08:10;;;;;;;9.57;5.55;;;;;;;;;;5097670;28;20418;-89
2021/06/05 07:10:37;;;;;;;10.30;6.70;;;;;;;;;;5097592;28;20036;-90
2021/06/05 07:13:03;;;;;;;9.93;6.40;;;;;;;;;;5097624;28;20016;-89
2021/06/05 07:15:29;;;;;;;9.27;6.38;;;;;;;;;;5096636;28;20035;-90
2021/06/05 07:17:56;;;;;;;16.33;7.90;;;;;;;;;;5096999;28;20070;-89
2021/06/05 07:20:22;;;;;;;12.63;7.03;;;;;;;;;;5097391;28;20016;-90
2021/06/05 07:22:48;;;;;;;15.63;8.85;;;;;;;;;;5096780;28;20322;-89
2021/06/05 07:25:14;;;;;;;8.68;4.68;;;;;;;;;;5097400;28;20020;-89
2021/06/05 07:27:40;;;;;;;8.50;6.68;;;;;;;;;;5097278;28;20055;-89
2021/06/05 07:30:08;;;;;;;16.52;10.38;;;;;;;;;;5097446;28;20404;-89
2021/06/05 07:32:34;;;;;;;18.13;8.75;;;;;;;;;;5097642;28;20039;-89
2021/06/05 07:35:00;;;;;;;18.67;8.10;;;;;;;;;;5101143;28;20063;-89
2021/06/05 07:37:26;;;;;;;16.42;6.68;;;;;;;;;;5101262;28;20016;-89
2021/06/05 07:39:52;;;;;;;13.32;7.50;;;;;;;;;;5100363;28;20031;-89
2021/06/05 07:42:18;;;;;;;21.77;7.40;;;;;;;;;;5101001;28;20055;-89
2021/06/05 07:44:44;;;;;;;14.57;7.35;;;;;;;;;;5100917;28;20051;-89
2021/06/05 07:47:10;;;;;;;19.10;12.23;;;;;;;;;;5100846;28;20037;-89
2021/06/05 07:49:38;;;;;;;17.00;7.93;;;;;;;;;;5099990;28;20028;-89
2021/06/05 07:52:06;;;;;;;7.60;3.95;;;;;;;;;;5100712;28;20028;-89
2021/06/05 07:54:32;;;;;;;8.85;4.40;;;;;;;;;;5099578;28;20024;-88
2021/06/05 07:56:58;;;;;;;8.80;4.40;;;;;;;;;;5099730;28;20047;-90
2021/06/05 07:59:26;;;;;;;11.30;5.60;;;;;;;;;;5100587;28;20031;-88
2021/06/05 08:01:53;;;;;;;12.48;4.50;;;;;;;;;;5100563;28;20426;-89
2021/06/05 08:04:19;;;;;;;17.33;5.22;;;;;;;;;;5100806;28;20070;-89
2021/06/05 08:06:46;;;;;;;14.88;5.65;;;;;;;;;;5100768;28;20028;-89
2021/06/05 08:09:12;;;;;;;7.53;5.40;;;;;;;;;;5100629;28;20024;-89
2021/06/05 08:11:39;;;;;;;12.27;5.40;;;;;;;;;;5100230;28;20110;-89
2021/06/05 08:14:05;;;;;;;26.40;21.25;;;;;;;;;;5099257;28;20110;-88
2021/06/05 08:16:36;;;;;;;9.27;6.07;;;;;;;;;;5100345;28;20302;-89
2021/06/05 08:19:03;;;;;;;5.40;3.08;;;;;;;;;;5100311;28;20020;-89
2021/06/05 08:21:29;;;;;;;7.80;3.78;;;;;;;;;;5100426;28;20032;-89
2021/06/05 08:23:55;;;;;;;10.27;4.82;;;;;;;;;;5100258;28;20061;-89
2021/06/05 08:26:21;;;;;;;5.00;3.42;;;;;;;;;;5100281;28;20414;-90
2021/06/05 08:28:48;;;;;;;7.22;3.70;;;;;;;;;;5100011;28;20053;-89
2021/06/05 08:31:15;;;;;;;8.90;4.32;;;;;;;;;;5100193;28;20111;-89
2021/06/05 08:33:41;;;;;;;8.80;4.10;;;;;;;;;;5100102;28;20050;-89
2021/06/05 08:36:08;;;;;;;6.53;3.50;;;;;;;;;;5100126;28;20030;-89
2021/06/05 08:38:35;;;;;;;5.80;3.10;;;;;;;;;;5099943;28;20016;-89
2021/06/05 08:41:19;;;;;;;11.70;4.88;;;;;;;;;;5099949;28;20016;-89
2021/06/05 08:43:45;;;;;;;8.13;3.50;;;;;;;;;;5099919;28;20098;-89
2021/06/05 08:46:15;;;;;;;7.13;3.70;;;;;;;;;;5098963;28;20082;-88
2021/06/05 08:48:41;;;;;;;8.27;3.25;;;;;;;;;;5099835;28;20028;-90
2021/06/05 08:51:12;;;;;;;5.97;3.80;;;;;;;;;;5099416;28;20055;-89
2021/06/05 08:53:38;;;;;;;3.83;3.10;;;;;;;;;;5099123;28;20482;-88
2021/06/05 08:56:06;;;;;;;4.53;2.80;;;;;;;;;;5099333;28;20062;-89
2021/06/05 08:58:37;;;;;;;6.07;3.20;;;;;;;;;;5099586;28;20039;-88
2021/06/05 09:01:21;;;;;;;5.25;3.38;;;;;;;;;;5099770;28;20016;-88
2021/06/05 09:03:54;;;;;;;8.40;3.25;;;;;;;;;;5099706;28;20024;-88
2021/06/05 09:06:30;;;;;;;4.78;3.03;;;;;;;;;;5098512;28;20028;-89
2021/06/05 09:08:56;;;;;;;8.35;4.88;;;;;;;;;;5099337;28;20024;-89
2021/06/05 09:11:22;;;;;;;7.82;3.17;;;;;;;;;;5099257;28;20111;-89
2021/06/05 09:13:48;;;;;;;18.55;14.50;;;;;;;;;;5099136;28;20406;-91
2021/06/05 09:16:23;;;;;;;9.63;6.72;;;;;;;;;;5099596;28;20313;-89
2021/06/05 09:18:50;;;;;;;7.82;3.90;;;;;;;;;;5099048;28;20028;-89
2021/06/05 09:21:36;;;;;;;3.95;2.90;;;;;;;;;;5099024;28;20065;-90
2021/06/05 09:24:15;;;;;;;8.23;3.25;;;;;;;;;;5099092;28;20024;-90
2021/06/05 09:26:43;;;;;;;8.38;3.92;;;;;;;;;;5099412;28;20306;-91
2021/06/05 09:29:17;;;;;;;5.25;3.38;;;;;;;;;;5098037;28;20074;-91
2021/06/05 09:32:04;;;;;;;6.28;3.55;;;;;;;;;;5097977;28;20035;-91
2021/06/05 09:34:33;;;;;;;6.38;3.35;;;;;;;;;;5098901;28;20020;-92
2021/06/05 09:37:01;;;;;;;5.53;3.05;;;;;;;;;;5098974;28;20034;-92
2021/06/05 09:39:53;;;;;;;7.90;3.45;;;;;;;;;;5098946;28;20028;-92
2021/06/05 09:42:33;;;;;;;6.65;3.50;;;;;;;;;;5097043;28;20034;-91
2021/06/05 09:45:00;;;;;;;10.77;3.60;;;;;;;;;;5097168;28;20485;-91
2021/06/05 09:47:31;;;;;;;6.63;3.50;;;;;;;;;;5096879;28;20068;-93
2021/06/05 09:50:17;;;;;;;8.38;3.60;;;;;;;;;;5097141;28;20032;-93
2021/06/05 09:52:44;;;;;;;6.30;3.30;;;;;;;;;;5096573;28;20040;-92
2021/06/05 09:55:15;;;;;;;8.57;4.05;;;;;;;;;;5096716;28;20456;-92
2021/06/05 09:57:43;;;;;;;6.03;3.10;;;;;;;;;;5096328;28;20075;-92
2021/06/05 10:00:12;;;;;;;7.15;2.63;;;;;;;;;;5096888;28;20119;-92
2021/06/05 10:02:43;;;;;;;5.43;3.28;;;;;;;;;;5096675;28;20119;-92
2021/06/05 10:05:09;;;;;;;6.50;3.38;;;;;;;;;;5096506;28;20024;-92
2021/06/05 10:07:35;;;;;;;7.13;2.83;;;;;;;;;;5096859;28;20062;-92
2021/06/05 10:10:13;;;;;;;4.65;3.28;;;;;;;;;;5096639;28;20353;-92
2021/06/05 10:12:41;;;;;;;6.68;2.90;;;;;;;;;;5096045;28;20452;-92
2021/06/05 10:15:09;;;;;;;5.25;3.17;;;;;;;;;;5096581;28;20035;-92
2021/06/05 10:17:41;;;;;;;7.90;3.00;;;;;;;;;;5096342;28;20517;-92
2021/06/05 10:20:33;;;;;;;8.23;2.67;;;;;;;;;;5097944;28;20062;-92
2021/06/05 10:23:00;;;;;;;9.23;3.45;;;;;;;;;;5096385;28;20033;-93
2021/06/05 10:25:32;;;;;;;9.50;3.70;;;;;;;;;;5096789;28;20069;-92
2021/06/05 10:28:02;;;;;;;4.88;2.75;;;;;;;;;;5096102;28;20434;-89
2021/06/05 10:30:34;;;;;;;7.93;3.25;;;;;;;;;;5096275;28;20024;-88
2021/06/05 10:33:00;;;;;;;8.13;3.25;;;;;;;;;;5078981;28;20089;-88
2021/06/05 10:35:29;;;;;;;4.63;3.10;;;;;;;;;;5096123;28;20094;-88
2021/06/05 10:38:18;;;;;;;9.00;3.40;;;;;;;;;;5096103;28;20099;-87
2021/06/05 10:40:47;;;;;;;7.82;3.25;;;;;;;;;;5035916;28;20029;-87
2021/06/05 10:43:15;;;;;;;10.25;3.55;;;;;;;;;;5035825;28;20034;-88
2021/06/05 10:45:43;;;;;;;7.25;2.83;;;;;;;;;;5035725;28;20060;-88
2021/06/05 10:48:27;;;;;;;7.18;3.35;;;;;;;;;;5035909;28;20060;-88
2021/06/05 10:50:59;;;;;;;6.25;3.15;;;;;;;;;;5035872;28;20072;-88
2021/06/05 10:53:36;;;;;;;6.93;3.40;;;;;;;;;;5035908;28;20041;-88
2021/06/05 10:56:13;;;;;;;6.22;3.53;;;;;;;;;;5035741;28;20355;-88
2021/06/05 10:58:39;;;;;;;9.93;3.25;;;;;;;;;;5036871;28;20042;-87
2021/06/05 11:01:08;;;;;;;8.45;3.30;;;;;;;;;;5038918;28;20021;-88
2021/06/05 11:03:37;;;;;;;9.43;3.78;;;;;;;;;;5055669;28;20033;-88
2021/06/05 11:06:10;;;;;;;8.45;3.13;;;;;;;;;;5055895;28;20421;-88
2021/06/05 11:08:40;;;;;;;8.65;2.97;;;;;;;;;;5057293;28;20045;-89
2021/06/05 11:11:06;;;;;;;7.68;3.10;;;;;;;;;;5059663;28;20423;-88
2021/06/05 11:13:35;;;;;;;4.95;2.80;;;;;;;;;;5059939;28;20124;-87
2021/06/05 11:16:03;;;;;;;5.53;2.78;;;;;;;;;;5059644;28;20029;-88
2021/06/05 11:18:31;;;;;;;6.80;3.10;;;;;;;;;;5093853;28;20058;-87
2021/06/05 11:20:59;;;;;;;4.32;2.50;;;;;;;;;;5101501;28;20020;-88
2021/06/05 11:23:26;;;;;;;5.13;2.85;;;;;;;;;;5101637;28;20016;-88
2021/06/05 11:25:53;;;;;;;13.00;3.65;;;;;;;;;;5101493;28;20031;-88
2021/06/05 11:28:31;;;;;;;7.28;2.85;;;;;;;;;;5101429;28;20035;-88
2021/06/05 11:30:57;;;;;;;6.75;2.53;;;;;;;;;;5101346;28;20032;-88
2021/06/05 11:33:38;;;;;;;7.32;3.03;;;;;;;;;;5100949;28;20035;-88
2021/06/05 11:36:24;;;;;;;6.53;2.78;;;;;;;;;;5101313;28;20291;-87
2021/06/05 11:38:51;;;;;;;6.25;3.30;;;;;;;;;;5100966;28;20028;-88
2021/06/05 11:41:35;;;;;;;7.47;3.15;;;;;;;;;;5101005;28;20020;-87
2021/06/05 11:44:24;;;;;;;3.95;2.85;;;;;;;;;;5101033;28;20028;-87
2021/06/05 11:46:52;;;;;;;5.45;2.75;;;;;;;;;;5100900;28;20035;-87
2021/06/05 11:49:37;;;;;;;5.10;2.70;;;;;;;;;;5101127;28;20097;-88
2021/06/05 11:52:32;;;;;;;4.82;3.05;;;;;;;;;;5100760;28;20024;-88
2021/06/05 11:55:07;;;;;;;5.05;3.50;;;;;;;;;;5082021;28;20147;-88
2021/06/05 11:57:36;;;;;;;6.65;3.10;;;;;;;;;;5098724;28;20059;-88
2021/06/05 12:00:06;;;;;;;4.30;3.05;;;;;;;;;;5099154;28;20063;-88
2021/06/05 12:02:35;;;;;;;8.73;2.78;;;;;;;;;;5098902;28;20110;-88
2021/06/05 12:05:08;;;;;;;6.80;2.92;;;;;;;;;;5098873;28;20035;-88
2021/06/05 12:07:37;;;;;;;6.18;3.10;;;;;;;;;;5098901;28;20032;-88
2021/06/05 12:10:04;;;;;;;6.13;2.80;;;;;;;;;;5098766;28;20044;-88
2021/06/05 12:12:31;;;;;;;7.07;2.88;;;;;;;;;;5098800;28;20040;-88
2021/06/05 12:15:09;;;;;;;6.75;3.33;;;;;;;;;;5098754;28;20469;-87
2021/06/05 12:17:35;;;;;;;4.63;2.95;;;;;;;;;;5098737;28;20083;-88
2021/06/05 12:20:09;;;;;;;5.95;3.00;;;;;;;;;;5098269;28;20024;-88
2021/06/05 12:22:36;;;;;;;3.17;2.35;;;;;;;;;;5098740;28;20028;-87
2021/06/05 12:25:03;;;;;;;5.55;2.38;;;;;;;;;;5098615;28;20085;-88
2021/06/05 12:27:39;;;;;;;5.63;2.35;;;;;;;;;;5098462;28;20032;-88
2021/06/05 12:30:11;;;;;;;5.55;2.63;;;;;;;;;;5098469;28;20040;-87
2021/06/05 12:32:38;;;;;;;6.68;2.53;;;;;;;;;;5100074;28;20066;-87
2021/06/05 12:35:23;;;;;;;4.65;2.50;;;;;;;;;;5099135;28;20417;-88
2021/06/05 12:37:53;;;;;;;6.72;2.78;;;;;;;;;;5099317;28;20044;-87
2021/06/05 12:40:24;;;;;;;6.27;2.50;;;;;;;;;;5099925;28;20020;-88
2021/06/05 12:42:50;;;;;;;;;;;;;;;;;;5099521;28;20024;-87
2021/06/05 12:45:21;;;;;;;4.43;2.60;;;;;;;;;;5100044;28;19900;-87
2021/06/05 12:47:48;;;;;;;6.03;2.53;;;;;;;;;;5100012;28;20048;-88
2021/06/05 12:50:16;;;;;;;5.20;2.75;;;;;;;;;;5099029;28;20075;-88
2021/06/05 12:52:43;;;;;;;3.95;2.92;;;;;;;;;;5099834;28;20477;-87
2021/06/05 12:55:40;;;;;;;5.43;3.28;;;;;;;;;;5099790;28;20115;-87
2021/06/05 12:58:08;;;;;;;6.05;2.55;;;;;;;;;;5097399;28;20097;-87
2021/06/05 13:00:48;;;;;;;4.20;2.50;;;;;;;;;;5097736;28;20105;-87
2021/06/05 13:03:14;;;;;;;4.78;2.40;;;;;;;;;;5097584;28;20032;-87
2021/06/05 13:05:42;;;;;;;3.67;2.75;;;;;;;;;;5097806;28;20023;-87
2021/06/05 13:08:18;;;;;;;5.90;2.78;;;;;;;;;;5097424;28;20032;-87
2021/06/05 13:10:46;;;;;;;7.47;2.72;;;;;;;;;;5097416;28;20453;-87
2021/06/05 13:13:12;;;;;;;10.05;3.20;;;;;;;;;;5097768;28;20063;-88
2021/06/05 13:15:58;;;;;;;5.53;2.40;;;;;;;;;;5097557;28;20032;-87
2021/06/05 13:21:31;;;;;;;6.07;2.85;;;;;;;;;;5097588;28;20537;-88
2021/06/05 13:24:15;;;;;;;9.00;3.10;;;;;;;;;;5097314;28;20412;-88
2021/06/05 13:26:43;;;;;;;5.32;2.90;;;;;;;;;;5097157;28;20318;-88
2021/06/05 13:29:21;;;;;;;3.88;2.38;;;;;;;;;;5097580;28;20036;-88
2021/06/05 13:31:48;;;;;;;6.03;2.58;;;;;;;;;;5096350;28;20028;-87
2021/06/05 13:34:19;;;;;;;5.65;2.20;;;;;;;;;;5097652;28;20082;-88
2021/06/05 13:36:46;;;;;;;3.65;2.42;;;;;;;;;;5099130;28;20106;-87
2021/06/05 13:39:14;;;;;;;6.22;2.97;;;;;;;;;;5098859;28;20472;-88
2021/06/05 13:41:41;;;;;;;5.13;2.47;;;;;;;;;;5098737;28;20024;-88
2021/06/05 13:44:07;;;;;;;5.40;2.38;;;;;;;;;;5098696;28;20026;-88
2021/06/05 13:46:34;;;;;;;6.93;4.35;;;;;;;;;;5097848;28;20357;-88
2021/06/05 13:49:01;;;;;;;6.15;4.07;;;;;;;;;;5098601;28;20030;-88
2021/06/05 13:51:27;;;;;;;24.05;6.32;;;;;;;;;;5097348;28;20024;-86
2021/06/05 13:53:54;;;;;;;11.70;5.95;;;;;;;;;;5098755;28;20076;-87
2021/06/05 13:56:21;;;;;;;6.93;3.17;;;;;;;;;;5098070;28;20107;-88
2021/06/05 13:58:48;;;;;;;4.80;3.65;;;;;;;;;;5098546;28;20457;-88
2021/06/05 14:01:18;;;;;;;9.45;3.58;;;;;;;;;;5098685;28;20055;-88
2021/06/05 14:03:44;;;;;;;9.10;3.88;;;;;;;;;;5098536;28;20091;-87
2021/06/05 14:06:10;;;;;;;5.03;2.45;;;;;;;;;;5098564;28;20020;-89
2021/06/05 14:08:36;;;;;;;4.60;2.53;;;;;;;;;;5098397;28;20027;-89
2021/06/05 14:11:02;;;;;;;9.52;2.33;;;;;;;;;;5097284;28;20020;-88
2021/06/05 14:13:28;;;;;;;7.07;2.40;;;;;;;;;;5097276;28;20031;-88
2021/06/05 14:15:55;;;;;;;14.35;3.40;;;;;;;;;;5098109;28;20099;-88
2021/06/05 14:18:24;;;;;;;7.30;2.60;;;;;;;;;;5097488;28;20032;-88
2021/06/05 14:20:52;;;;;;;7.15;2.40;;;;;;;;;;5097879;28;20058;-88
2021/06/05 14:23:18;;;;;;;4.50;2.28;;;;;;;;;;5095785;28;20402;-88
2021/06/05 14:25:45;;;;;;;8.80;2.95;;;;;;;;;;5082600;28;20086;-90
2021/06/05 14:28:12;;;;;;;5.50;2.60;;;;;;;;;;5077648;28;20036;-88
2021/06/05 14:30:40;;;;;;;8.07;2.53;;;;;;;;;;5077950;28;20028;-90
2021/06/05 14:33:06;;;;;;;6.25;2.50;;;;;;;;;;5077812;28;20024;-87
2021/06/05 14:35:34;;;;;;;10.70;4.38;;;;;;;;;;5077878;28;20074;-94
2021/06/05 14:38:00;;;;;;;7.97;3.33;;;;;;;;;;5077909;28;20032;-94
2021/06/05 14:40:26;;;;;;;5.80;2.97;;;;;;;;;;5077298;28;20103;-93
2021/06/05 14:42:53;;;;;;;2.88;2.33;;;;;;;;;;5077649;28;20021;-92
2021/06/05 14:45:20;;;;;;;4.45;2.40;;;;;;;;;;5077593;28;20020;-91
2021/06/05 14:47:46;;;;;;;6.97;3.33;;;;;;;;;;5077256;28;20112;-93
2021/06/05 14:50:14;;;;;;;5.65;3.20;;;;;;;;;;5077530;28;20031;-94
2021/06/05 14:52:40;;;;;;;3.97;3.10;;;;;;;;;;5077773;28;20062;-95
2021/06/05 14:55:07;;;;;;;5.15;2.42;;;;;;;;;;5077389;28;20016;-95